sensor_id;sensor_type;location;lat;lon;timestamp;P1;durP1;ratioP1;P2;durP2;ratioP2
20458;SDS011;10388;52.314;7.938;2022-12-29T00:01:46;3.73;;;3.43;;
20458;SDS011;10388;52.314;7.938;2022-12-29T00:04:17;4.37;;;3.90;;
20458;SDS011;10388;52.314;7.938;2022-12-29T00:06:49;3.70;;;3.40;;
20458;SDS011;10388;52.314;7.938;2022-12-29T00:09:21;4.40;;;4.00;;
20458;SDS011;10388;52.314;7.938;2022-12-29T00:11:52;5.20;;;4.70;;
20458;SDS011;10388;52.314;7.938;2022-12-29T00:14:23;4.80;;;4.40;;
20458;SDS011;10388;52.314;7.938;2022-12-29T00:17:12;4.03;;;3.73;;
20458;SDS011;10388;52.314;7.938;2022-12-29T00:19:43;5.33;;;4.13;;
20458;SDS011;10388;52.314;7.938;2022-12-29T00:22:32;3.77;;;3.47;;
20458;SDS011;10388;52.314;7.938;2022-12-29T00:25:21;3.93;;;3.63;;
20458;SDS011;10388;52.314;7.938;2022-12-29T00:28:10;5.00;;;3.90;;
20458;SDS011;10388;52.314;7.938;2022-12-29T00:31:00;4.03;;;3.73;;
20458;SDS011;10388;52.314;7.938;2022-12-29T00:33:49;4.10;;;3.80;;
20458;SDS011;10388;52.314;7.938;2022-12-29T00:36:41;3.83;;;3.53;;
20458;SDS011;10388;52.314;7.938;2022-12-29T00:39:14;3.80;;;3.40;;
20458;SDS011;10388;52.314;7.938;2022-12-29T00:42:07;4.10;;;3.77;;
20458;SDS011;10388;52.314;7.938;2022-12-29T00:44:57;3.80;;;3.37;;
20458;SDS011;10388;52.314;7.938;2022-12-29T00:47:27;3.90;;;3.60;;
20458;SDS011;10388;52.314;7.938;2022-12-29T00:49:58;4.63;;;3.20;;
20458;SDS011;10388;52.314;7.938;2022-12-29T00:52:28;3.33;;;3.03;;
20458;SDS011;10388;52.314;7.938;2022-12-29T00:54:59;3.47;;;3.10;;
20458;SDS011;10388;52.314;7.938;2022-12-29T00:57:29;3.17;;;2.93;;
20458;SDS011;10388;52.314;7.938;2022-12-29T01:00:00;3.23;;;3.03;;
20458;SDS011;10388;52.314;7.938;2022-12-29T03:19:30;1.70;;;1.60;;
20458;SDS011;10388;52.314;7.938;2022-12-29T03:22:08;1.80;;;1.70;;
20458;SDS011;10388;52.314;7.938;2022-12-29T03:25:05;1.40;;;1.30;;
20458;SDS011;10388;52.314;7.938;2022-12-29T03:27:46;1.77;;;1.67;;
20458;SDS011;10388;52.314;7.938;2022-12-29T03:30:21;1.40;;;1.30;;
20458;SDS011;10388;52.314;7.938;2022-12-29T03:32:54;1.13;;;1.10;;
20458;SDS011;10388;52.314;7.938;2022-12-29T03:35:29;2.10;;;1.43;;
20458;SDS011;10388;52.314;7.938;2022-12-29T03:40:59;1.13;;;1.03;;
20458;SDS011;10388;52.314;7.938;2022-12-29T03:43:34;1.20;;;1.10;;
20458;SDS011;10388;52.314;7.938;2022-12-29T03:46:05;1.30;;;1.20;;
20458;SDS011;10388;52.314;7.938;2022-12-29T03:48:35;1.43;;;1.10;;
20458;SDS011;10388;52.314;7.938;2022-12-29T03:51:06;1.07;;;0.97;;
20458;SDS011;10388;52.314;7.938;2022-12-29T03:53:36;2.03;;;0.97;;
20458;SDS011;10388;52.314;7.938;2022-12-29T03:56:07;1.53;;;1.00;;
20458;SDS011;10388;52.314;7.938;2022-12-29T03:58:37;2.70;;;0.80;;
20458;SDS011;10388;52.314;7.938;2022-12-29T04:01:08;1.43;;;1.00;;
20458;SDS011;10388;52.314;7.938;2022-12-29T04:03:38;1.63;;;0.90;;
20458;SDS011;10388;52.314;7.938;2022-12-29T04:06:09;1.73;;;1.00;;
20458;SDS011;10388;52.314;7.938;2022-12-29T04:08:39;1.40;;;0.80;;
20458;SDS011;10388;52.314;7.938;2022-12-29T04:11:10;2.43;;;1.13;;
20458;SDS011;10388;52.314;7.938;2022-12-29T04:13:41;3.77;;;1.00;;
20458;SDS011;10388;52.314;7.938;2022-12-29T04:16:11;0.80;;;0.80;;
20458;SDS011;10388;52.314;7.938;2022-12-29T04:18:42;0.87;;;0.77;;
20458;SDS011;10388;52.314;7.938;2022-12-29T04:21:12;1.03;;;0.80;;
20458;SDS011;10388;52.314;7.938;2022-12-29T04:23:43;1.83;;;1.13;;
20458;SDS011;10388;52.314;7.938;2022-12-29T04:26:14;1.13;;;0.70;;
20458;SDS011;10388;52.314;7.938;2022-12-29T04:28:44;1.63;;;0.80;;
20458;SDS011;10388;52.314;7.938;2022-12-29T04:31:15;3.10;;;0.97;;
20458;SDS011;10388;52.314;7.938;2022-12-29T04:33:45;0.80;;;0.80;;
20458;SDS011;10388;52.314;7.938;2022-12-29T04:36:16;0.70;;;0.70;;
20458;SDS011;10388;52.314;7.938;2022-12-29T04:38:46;0.70;;;0.63;;
20458;SDS011;10388;52.314;7.938;2022-12-29T04:41:23;1.17;;;0.90;;
20458;SDS011;10388;52.314;7.938;2022-12-29T04:43:54;1.60;;;0.83;;
20458;SDS011;10388;52.314;7.938;2022-12-29T04:46:25;1.07;;;0.93;;
20458;SDS011;10388;52.314;7.938;2022-12-29T04:48:55;0.73;;;0.73;;
20458;SDS011;10388;52.314;7.938;2022-12-29T04:51:26;1.10;;;0.70;;
20458;SDS011;10388;52.314;7.938;2022-12-29T04:53:56;1.37;;;1.00;;
20458;SDS011;10388;52.314;7.938;2022-12-29T04:56:27;1.43;;;0.90;;
20458;SDS011;10388;52.314;7.938;2022-12-29T04:58:57;1.80;;;1.00;;
20458;SDS011;10388;52.314;7.938;2022-12-29T05:01:28;1.53;;;1.13;;
20458;SDS011;10388;52.314;7.938;2022-12-29T05:03:58;0.80;;;0.80;;
20458;SDS011;10388;52.314;7.938;2022-12-29T05:06:29;0.73;;;0.63;;
20458;SDS011;10388;52.314;7.938;2022-12-29T05:08:59;3.90;;;1.00;;
20458;SDS011;10388;52.314;7.938;2022-12-29T05:11:30;1.30;;;1.00;;
20458;SDS011;10388;52.314;7.938;2022-12-29T05:14:00;1.77;;;0.73;;
20458;SDS011;10388;52.314;7.938;2022-12-29T05:16:31;1.30;;;0.83;;
20458;SDS011;10388;52.314;7.938;2022-12-29T05:19:01;1.37;;;1.00;;
20458;SDS011;10388;52.314;7.938;2022-12-29T05:21:32;1.27;;;0.90;;
20458;SDS011;10388;52.314;7.938;2022-12-29T05:24:03;2.17;;;0.83;;
20458;SDS011;10388;52.314;7.938;2022-12-29T05:26:33;1.07;;;0.90;;
20458;SDS011;10388;52.314;7.938;2022-12-29T05:29:04;1.43;;;1.03;;
20458;SDS011;10388;52.314;7.938;2022-12-29T05:31:35;2.50;;;0.80;;
20458;SDS011;10388;52.314;7.938;2022-12-29T05:34:05;1.50;;;0.93;;
20458;SDS011;10388;52.314;7.938;2022-12-29T05:36:36;2.40;;;0.97;;
20458;SDS011;10388;52.314;7.938;2022-12-29T05:39:06;0.70;;;0.70;;
20458;SDS011;10388;52.314;7.938;2022-12-29T05:41:40;0.90;;;0.80;;
20458;SDS011;10388;52.314;7.938;2022-12-29T05:44:11;0.70;;;0.70;;
20458;SDS011;10388;52.314;7.938;2022-12-29T05:46:41;1.37;;;0.60;;
20458;SDS011;10388;52.314;7.938;2022-12-29T05:49:12;1.60;;;0.93;;
20458;SDS011;10388;52.314;7.938;2022-12-29T05:51:42;1.43;;;0.80;;
20458;SDS011;10388;52.314;7.938;2022-12-29T05:54:13;3.00;;;0.80;;
20458;SDS011;10388;52.314;7.938;2022-12-29T05:56:43;1.10;;;0.63;;
20458;SDS011;10388;52.314;7.938;2022-12-29T05:59:14;3.43;;;1.47;;
20458;SDS011;10388;52.314;7.938;2022-12-29T06:01:44;1.10;;;0.70;;
20458;SDS011;10388;52.314;7.938;2022-12-29T06:04:15;1.53;;;0.80;;
20458;SDS011;10388;52.314;7.938;2022-12-29T06:06:46;1.80;;;0.70;;
20458;SDS011;10388;52.314;7.938;2022-12-29T06:09:17;1.63;;;0.70;;
20458;SDS011;10388;52.314;7.938;2022-12-29T06:11:47;1.13;;;0.63;;
20458;SDS011;10388;52.314;7.938;2022-12-29T06:14:18;3.43;;;0.70;;
20458;SDS011;10388;52.314;7.938;2022-12-29T06:16:48;1.27;;;0.67;;
20458;SDS011;10388;52.314;7.938;2022-12-29T06:19:19;1.73;;;0.97;;
20458;SDS011;10388;52.314;7.938;2022-12-29T06:21:49;1.63;;;0.50;;
20458;SDS011;10388;52.314;7.938;2022-12-29T06:24:22;0.50;;;0.50;;
20458;SDS011;10388;52.314;7.938;2022-12-29T06:26:52;2.63;;;0.73;;
20458;SDS011;10388;52.314;7.938;2022-12-29T06:29:23;0.50;;;0.50;;
20458;SDS011;10388;52.314;7.938;2022-12-29T06:31:53;0.80;;;0.50;;
20458;SDS011;10388;52.314;7.938;2022-12-29T06:34:27;0.93;;;0.50;;
20458;SDS011;10388;52.314;7.938;2022-12-29T06:36:58;0.67;;;0.50;;
20458;SDS011;10388;52.314;7.938;2022-12-29T06:39:29;1.70;;;0.70;;
20458;SDS011;10388;52.314;7.938;2022-12-29T06:41:59;1.00;;;0.80;;
20458;SDS011;10388;52.314;7.938;2022-12-29T06:44:30;1.00;;;0.70;;
20458;SDS011;10388;52.314;7.938;2022-12-29T06:47:00;1.63;;;0.70;;
20458;SDS011;10388;52.314;7.938;2022-12-29T06:49:31;1.57;;;0.70;;
20458;SDS011;10388;52.314;7.938;2022-12-29T06:52:01;0.80;;;0.60;;
20458;SDS011;10388;52.314;7.938;2022-12-29T06:54:34;3.33;;;0.67;;
20458;SDS011;10388;52.314;7.938;2022-12-29T06:57:04;1.53;;;1.00;;
20458;SDS011;10388;52.314;7.938;2022-12-29T06:59:35;1.40;;;0.90;;
20458;SDS011;10388;52.314;7.938;2022-12-29T07:02:05;2.67;;;1.00;;
20458;SDS011;10388;52.314;7.938;2022-12-29T07:04:36;3.30;;;1.33;;
20458;SDS011;10388;52.314;7.938;2022-12-29T07:07:06;3.60;;;0.70;;
20458;SDS011;10388;52.314;7.938;2022-12-29T07:09:37;5.23;;;1.33;;
20458;SDS011;10388;52.314;7.938;2022-12-29T07:12:08;2.07;;;0.70;;
20458;SDS011;10388;52.314;7.938;2022-12-29T07:14:38;3.40;;;0.87;;
20458;SDS011;10388;52.314;7.938;2022-12-29T07:17:09;3.67;;;1.27;;
20458;SDS011;10388;52.314;7.938;2022-12-29T07:19:40;2.40;;;0.90;;
20458;SDS011;10388;52.314;7.938;2022-12-29T07:22:10;2.10;;;0.80;;
20458;SDS011;10388;52.314;7.938;2022-12-29T07:24:41;0.97;;;0.73;;
20458;SDS011;10388;52.314;7.938;2022-12-29T07:27:13;1.53;;;0.80;;
20458;SDS011;10388;52.314;7.938;2022-12-29T07:29:43;2.67;;;0.60;;
20458;SDS011;10388;52.314;7.938;2022-12-29T07:32:14;2.10;;;0.77;;
20458;SDS011;10388;52.314;7.938;2022-12-29T07:34:44;2.40;;;0.87;;
20458;SDS011;10388;52.314;7.938;2022-12-29T07:37:17;1.47;;;0.90;;
20458;SDS011;10388;52.314;7.938;2022-12-29T07:39:47;1.70;;;0.77;;
20458;SDS011;10388;52.314;7.938;2022-12-29T07:42:18;3.30;;;1.07;;
20458;SDS011;10388;52.314;7.938;2022-12-29T07:44:48;1.53;;;0.70;;
20458;SDS011;10388;52.314;7.938;2022-12-29T07:47:19;3.73;;;1.33;;
20458;SDS011;10388;52.314;7.938;2022-12-29T07:49:49;1.23;;;0.77;;
20458;SDS011;10388;52.314;7.938;2022-12-29T07:52:20;3.23;;;1.10;;
20458;SDS011;10388;52.314;7.938;2022-12-29T07:54:51;2.10;;;0.90;;
20458;SDS011;10388;52.314;7.938;2022-12-29T07:57:21;2.70;;;0.90;;
20458;SDS011;10388;52.314;7.938;2022-12-29T07:59:55;4.23;;;1.10;;
20458;SDS011;10388;52.314;7.938;2022-12-29T08:02:25;2.73;;;1.07;;
20458;SDS011;10388;52.314;7.938;2022-12-29T08:04:56;2.50;;;1.20;;
20458;SDS011;10388;52.314;7.938;2022-12-29T08:07:26;3.10;;;0.80;;
20458;SDS011;10388;52.314;7.938;2022-12-29T08:09:57;3.73;;;0.93;;
20458;SDS011;10388;52.314;7.938;2022-12-29T08:12:28;3.90;;;1.10;;
20458;SDS011;10388;52.314;7.938;2022-12-29T08:14:58;1.13;;;0.67;;
20458;SDS011;10388;52.314;7.938;2022-12-29T08:17:29;3.70;;;1.57;;
20458;SDS011;10388;52.314;7.938;2022-12-29T08:19:59;1.83;;;0.73;;
20458;SDS011;10388;52.314;7.938;2022-12-29T08:22:30;3.33;;;0.90;;
20458;SDS011;10388;52.314;7.938;2022-12-29T08:25:00;2.63;;;0.90;;
20458;SDS011;10388;52.314;7.938;2022-12-29T08:27:31;2.53;;;1.00;;
20458;SDS011;10388;52.314;7.938;2022-12-29T08:30:02;5.37;;;1.70;;
20458;SDS011;10388;52.314;7.938;2022-12-29T08:32:33;1.80;;;0.87;;
20458;SDS011;10388;52.314;7.938;2022-12-29T08:35:03;3.40;;;0.90;;
20458;SDS011;10388;52.314;7.938;2022-12-29T08:37:34;3.70;;;0.97;;
20458;SDS011;10388;52.314;7.938;2022-12-29T08:40:05;1.77;;;0.60;;
20458;SDS011;10388;52.314;7.938;2022-12-29T08:42:36;3.30;;;0.80;;
20458;SDS011;10388;52.314;7.938;2022-12-29T08:45:07;1.87;;;0.93;;
20458;SDS011;10388;52.314;7.938;2022-12-29T08:47:38;3.50;;;0.93;;
20458;SDS011;10388;52.314;7.938;2022-12-29T08:50:09;4.33;;;0.90;;
20458;SDS011;10388;52.314;7.938;2022-12-29T08:52:39;4.13;;;0.97;;
20458;SDS011;10388;52.314;7.938;2022-12-29T08:55:10;1.80;;;0.80;;
20458;SDS011;10388;52.314;7.938;2022-12-29T08:57:40;3.37;;;1.20;;
20458;SDS011;10388;52.314;7.938;2022-12-29T09:00:11;1.20;;;0.63;;
20458;SDS011;10388;52.314;7.938;2022-12-29T09:02:42;2.93;;;0.90;;
20458;SDS011;10388;52.314;7.938;2022-12-29T09:05:12;3.97;;;0.90;;
20458;SDS011;10388;52.314;7.938;2022-12-29T09:07:43;3.67;;;0.90;;
20458;SDS011;10388;52.314;7.938;2022-12-29T09:10:13;1.60;;;0.80;;
20458;SDS011;10388;52.314;7.938;2022-12-29T09:12:44;2.27;;;1.30;;
20458;SDS011;10388;52.314;7.938;2022-12-29T09:15:15;1.93;;;1.00;;
20458;SDS011;10388;52.314;7.938;2022-12-29T09:17:45;2.67;;;1.00;;
20458;SDS011;10388;52.314;7.938;2022-12-29T09:20:17;2.13;;;1.00;;
20458;SDS011;10388;52.314;7.938;2022-12-29T09:22:49;1.90;;;0.80;;
20458;SDS011;10388;52.314;7.938;2022-12-29T09:25:19;3.30;;;1.07;;
20458;SDS011;10388;52.314;7.938;2022-12-29T09:27:51;3.17;;;0.90;;
20458;SDS011;10388;52.314;7.938;2022-12-29T09:30:23;4.80;;;1.10;;
20458;SDS011;10388;52.314;7.938;2022-12-29T09:32:53;2.37;;;1.17;;
20458;SDS011;10388;52.314;7.938;2022-12-29T09:35:24;3.60;;;1.10;;
20458;SDS011;10388;52.314;7.938;2022-12-29T09:37:55;3.40;;;1.20;;
20458;SDS011;10388;52.314;7.938;2022-12-29T09:40:30;3.67;;;1.00;;
20458;SDS011;10388;52.314;7.938;2022-12-29T09:43:21;5.77;;;1.20;;
20458;SDS011;10388;52.314;7.938;2022-12-29T09:46:28;4.73;;;1.00;;
20458;SDS011;10388;52.314;7.938;2022-12-29T09:49:16;5.63;;;1.30;;
20458;SDS011;10388;52.314;7.938;2022-12-29T09:51:53;7.27;;;1.43;;
20458;SDS011;10388;52.314;7.938;2022-12-29T09:54:41;3.20;;;1.20;;
20458;SDS011;10388;52.314;7.938;2022-12-29T10:00:05;3.27;;;1.20;;
20458;SDS011;10388;52.314;7.938;2022-12-29T10:02:50;4.47;;;1.40;;
20458;SDS011;10388;52.314;7.938;2022-12-29T10:08:25;4.10;;;1.20;;
20458;SDS011;10388;52.314;7.938;2022-12-29T10:14:13;3.27;;;1.00;;
20458;SDS011;10388;52.314;7.938;2022-12-29T10:16:51;3.00;;;0.90;;
20458;SDS011;10388;52.314;7.938;2022-12-29T10:19:44;4.13;;;1.23;;
20458;SDS011;10388;52.314;7.938;2022-12-29T10:25:24;3.70;;;0.90;;
20458;SDS011;10388;52.314;7.938;2022-12-29T10:27:56;4.47;;;1.37;;
20458;SDS011;10388;52.314;7.938;2022-12-29T10:30:32;4.13;;;1.00;;
20458;SDS011;10388;52.314;7.938;2022-12-29T10:33:04;2.50;;;1.10;;
20458;SDS011;10388;52.314;7.938;2022-12-29T10:35:39;5.07;;;1.30;;
20458;SDS011;10388;52.314;7.938;2022-12-29T10:38:30;5.13;;;1.17;;
20458;SDS011;10388;52.314;7.938;2022-12-29T10:41:11;6.57;;;1.10;;
20458;SDS011;10388;52.314;7.938;2022-12-29T10:43:47;2.93;;;0.97;;
20458;SDS011;10388;52.314;7.938;2022-12-29T10:46:21;3.77;;;1.13;;
20458;SDS011;10388;52.314;7.938;2022-12-29T10:48:55;6.73;;;1.50;;
20458;SDS011;10388;52.314;7.938;2022-12-29T10:51:27;2.80;;;1.00;;
20458;SDS011;10388;52.314;7.938;2022-12-29T10:54:20;4.53;;;1.30;;
20458;SDS011;10388;52.314;7.938;2022-12-29T10:57:27;3.63;;;1.20;;
20458;SDS011;10388;52.314;7.938;2022-12-29T11:00:08;4.90;;;1.17;;
20458;SDS011;10388;52.314;7.938;2022-12-29T11:06:22;4.23;;;1.20;;
20458;SDS011;10388;52.314;7.938;2022-12-29T11:08:58;5.27;;;1.20;;
20458;SDS011;10388;52.314;7.938;2022-12-29T11:11:38;4.53;;;0.90;;
20458;SDS011;10388;52.314;7.938;2022-12-29T11:16:39;3.40;;;1.10;;
20458;SDS011;10388;52.314;7.938;2022-12-29T11:19:24;1.47;;;0.83;;
20458;SDS011;10388;52.314;7.938;2022-12-29T11:25:05;4.30;;;0.97;;
20458;SDS011;10388;52.314;7.938;2022-12-29T11:27:40;5.40;;;1.20;;
20458;SDS011;10388;52.314;7.938;2022-12-29T11:30:29;6.20;;;1.43;;
20458;SDS011;10388;52.314;7.938;2022-12-29T11:33:02;3.30;;;1.40;;
20458;SDS011;10388;52.314;7.938;2022-12-29T11:38:11;3.53;;;1.20;;
20458;SDS011;10388;52.314;7.938;2022-12-29T11:40:51;3.40;;;1.07;;
20458;SDS011;10388;52.314;7.938;2022-12-29T11:43:36;4.87;;;1.10;;
20458;SDS011;10388;52.314;7.938;2022-12-29T11:46:14;2.30;;;0.90;;
20458;SDS011;10388;52.314;7.938;2022-12-29T11:48:47;3.93;;;1.17;;
20458;SDS011;10388;52.314;7.938;2022-12-29T11:51:29;3.77;;;1.40;;
20458;SDS011;10388;52.314;7.938;2022-12-29T11:54:09;2.10;;;1.10;;
20458;SDS011;10388;52.314;7.938;2022-12-29T11:56:49;5.07;;;1.87;;
20458;SDS011;10388;52.314;7.938;2022-12-29T11:59:25;3.03;;;1.07;;
20458;SDS011;10388;52.314;7.938;2022-12-29T12:02:15;4.50;;;1.30;;
20458;SDS011;10388;52.314;7.938;2022-12-29T12:04:49;3.17;;;1.07;;
20458;SDS011;10388;52.314;7.938;2022-12-29T12:07:43;2.40;;;1.20;;
20458;SDS011;10388;52.314;7.938;2022-12-29T12:10:19;3.10;;;1.20;;
20458;SDS011;10388;52.314;7.938;2022-12-29T12:12:56;4.03;;;1.17;;
20458;SDS011;10388;52.314;7.938;2022-12-29T12:15:44;3.27;;;1.03;;
20458;SDS011;10388;52.314;7.938;2022-12-29T12:18:25;3.67;;;1.20;;
20458;SDS011;10388;52.314;7.938;2022-12-29T12:21:03;3.73;;;0.97;;
20458;SDS011;10388;52.314;7.938;2022-12-29T12:23:44;4.90;;;1.20;;
20458;SDS011;10388;52.314;7.938;2022-12-29T12:26:37;1.33;;;0.80;;
20458;SDS011;10388;52.314;7.938;2022-12-29T12:29:28;3.30;;;1.00;;
20458;SDS011;10388;52.314;7.938;2022-12-29T12:32:15;2.20;;;1.00;;
20458;SDS011;10388;52.314;7.938;2022-12-29T12:34:50;3.53;;;0.80;;
20458;SDS011;10388;52.314;7.938;2022-12-29T12:51:58;4.60;;;1.10;;
20458;SDS011;10388;52.314;7.938;2022-12-29T12:55:02;3.37;;;1.03;;
20458;SDS011;10388;52.314;7.938;2022-12-29T13:00:40;3.63;;;1.20;;
20458;SDS011;10388;52.314;7.938;2022-12-29T13:03:44;3.83;;;1.00;;
20458;SDS011;10388;52.314;7.938;2022-12-29T13:15:11;5.00;;;1.40;;
20458;SDS011;10388;52.314;7.938;2022-12-29T13:17:57;4.40;;;1.50;;
20458;SDS011;10388;52.314;7.938;2022-12-29T13:23:32;5.90;;;1.83;;
20458;SDS011;10388;52.314;7.938;2022-12-29T13:26:24;5.67;;;1.50;;
20458;SDS011;10388;52.314;7.938;2022-12-29T13:29:23;2.57;;;1.20;;
20458;SDS011;10388;52.314;7.938;2022-12-29T13:37:54;5.87;;;1.83;;
20458;SDS011;10388;52.314;7.938;2022-12-29T13:40:45;5.97;;;1.33;;
20458;SDS011;10388;52.314;7.938;2022-12-29T13:43:19;2.23;;;1.40;;
20458;SDS011;10388;52.314;7.938;2022-12-29T13:45:59;2.50;;;1.33;;
20458;SDS011;10388;52.314;7.938;2022-12-29T13:48:38;4.73;;;1.57;;
20458;SDS011;10388;52.314;7.938;2022-12-29T13:51:28;4.13;;;1.50;;
20458;SDS011;10388;52.314;7.938;2022-12-29T13:56:55;3.60;;;1.50;;
20458;SDS011;10388;52.314;7.938;2022-12-29T13:59:44;4.67;;;1.53;;
20458;SDS011;10388;52.314;7.938;2022-12-29T14:05:15;4.43;;;1.50;;
20458;SDS011;10388;52.314;7.938;2022-12-29T14:08:02;4.80;;;1.37;;
20458;SDS011;10388;52.314;7.938;2022-12-29T14:10:36;4.70;;;1.60;;
20458;SDS011;10388;52.314;7.938;2022-12-29T14:13:16;2.93;;;1.43;;
20458;SDS011;10388;52.314;7.938;2022-12-29T14:15:53;6.40;;;2.03;;
20458;SDS011;10388;52.314;7.938;2022-12-29T14:18:28;2.70;;;1.37;;
20458;SDS011;10388;52.314;7.938;2022-12-29T14:21:05;2.60;;;1.20;;
20458;SDS011;10388;52.314;7.938;2022-12-29T14:23:49;4.03;;;1.77;;
20458;SDS011;10388;52.314;7.938;2022-12-29T14:26:33;3.47;;;1.73;;
20458;SDS011;10388;52.314;7.938;2022-12-29T14:31:53;4.30;;;1.60;;
20458;SDS011;10388;52.314;7.938;2022-12-29T14:34:29;7.30;;;1.50;;
20458;SDS011;10388;52.314;7.938;2022-12-29T14:37:01;4.53;;;1.30;;
20458;SDS011;10388;52.314;7.938;2022-12-29T14:39:39;2.40;;;1.30;;
20458;SDS011;10388;52.314;7.938;2022-12-29T14:44:57;4.93;;;1.40;;
20458;SDS011;10388;52.314;7.938;2022-12-29T14:47:52;2.03;;;1.37;;
20458;SDS011;10388;52.314;7.938;2022-12-29T14:50:25;3.47;;;1.80;;
20458;SDS011;10388;52.314;7.938;2022-12-29T14:53:40;6.00;;;2.27;;
20458;SDS011;10388;52.314;7.938;2022-12-29T14:56:16;4.97;;;1.70;;
20458;SDS011;10388;52.314;7.938;2022-12-29T14:58:53;5.33;;;1.83;;
20458;SDS011;10388;52.314;7.938;2022-12-29T15:01:36;4.83;;;1.60;;
20458;SDS011;10388;52.314;7.938;2022-12-29T15:04:14;6.10;;;1.70;;
20458;SDS011;10388;52.314;7.938;2022-12-29T15:06:49;4.67;;;1.90;;
20458;SDS011;10388;52.314;7.938;2022-12-29T15:09:28;6.37;;;2.00;;
20458;SDS011;10388;52.314;7.938;2022-12-29T15:12:11;5.80;;;1.80;;
20458;SDS011;10388;52.314;7.938;2022-12-29T15:15:01;5.37;;;2.00;;
20458;SDS011;10388;52.314;7.938;2022-12-29T15:17:43;6.27;;;2.20;;
20458;SDS011;10388;52.314;7.938;2022-12-29T15:20:17;5.63;;;1.70;;
20458;SDS011;10388;52.314;7.938;2022-12-29T15:25:28;4.07;;;1.47;;
20458;SDS011;10388;52.314;7.938;2022-12-29T15:28:00;2.40;;;1.60;;
20458;SDS011;10388;52.314;7.938;2022-12-29T15:30:36;3.73;;;1.40;;
20458;SDS011;10388;52.314;7.938;2022-12-29T15:33:27;5.07;;;1.50;;
20458;SDS011;10388;52.314;7.938;2022-12-29T15:36:02;5.27;;;2.50;;
20458;SDS011;10388;52.314;7.938;2022-12-29T15:38:40;4.47;;;1.43;;
20458;SDS011;10388;52.314;7.938;2022-12-29T15:41:23;3.63;;;1.60;;
20458;SDS011;10388;52.314;7.938;2022-12-29T15:44:14;4.53;;;1.50;;
20458;SDS011;10388;52.314;7.938;2022-12-29T15:46:50;5.27;;;1.50;;
20458;SDS011;10388;52.314;7.938;2022-12-29T15:49:21;5.33;;;2.03;;
20458;SDS011;10388;52.314;7.938;2022-12-29T15:51:53;4.33;;;1.70;;
20458;SDS011;10388;52.314;7.938;2022-12-29T15:54:24;3.63;;;1.30;;
20458;SDS011;10388;52.314;7.938;2022-12-29T15:56:59;5.47;;;1.80;;
20458;SDS011;10388;52.314;7.938;2022-12-29T15:59:31;3.03;;;1.90;;
20458;SDS011;10388;52.314;7.938;2022-12-29T16:02:07;3.50;;;1.37;;
20458;SDS011;10388;52.314;7.938;2022-12-29T16:04:39;4.60;;;1.47;;
20458;SDS011;10388;52.314;7.938;2022-12-29T16:07:22;3.87;;;1.80;;
20458;SDS011;10388;52.314;7.938;2022-12-29T16:09:57;5.03;;;1.60;;
20458;SDS011;10388;52.314;7.938;2022-12-29T16:12:31;6.47;;;1.70;;
20458;SDS011;10388;52.314;7.938;2022-12-29T16:15:05;3.40;;;1.30;;
20458;SDS011;10388;52.314;7.938;2022-12-29T16:17:45;3.87;;;1.37;;
20458;SDS011;10388;52.314;7.938;2022-12-29T16:22:56;3.80;;;1.43;;
20458;SDS011;10388;52.314;7.938;2022-12-29T16:25:29;5.57;;;1.77;;
20458;SDS011;10388;52.314;7.938;2022-12-29T16:28:15;3.27;;;1.40;;
20458;SDS011;10388;52.314;7.938;2022-12-29T16:31:04;4.03;;;1.67;;
20458;SDS011;10388;52.314;7.938;2022-12-29T16:33:39;4.70;;;1.80;;
20458;SDS011;10388;52.314;7.938;2022-12-29T16:36:39;4.17;;;1.50;;
20458;SDS011;10388;52.314;7.938;2022-12-29T16:39:37;3.60;;;1.30;;
20458;SDS011;10388;52.314;7.938;2022-12-29T16:48:06;4.40;;;2.17;;
20458;SDS011;10388;52.314;7.938;2022-12-29T16:50:47;16.67;;;8.97;;
20458;SDS011;10388;52.314;7.938;2022-12-29T16:53:25;10.90;;;4.37;;
20458;SDS011;10388;52.314;7.938;2022-12-29T16:55:59;6.57;;;3.17;;
20458;SDS011;10388;52.314;7.938;2022-12-29T16:58:35;23.97;;;13.90;;
20458;SDS011;10388;52.314;7.938;2022-12-29T17:01:06;5.43;;;3.73;;
20458;SDS011;10388;52.314;7.938;2022-12-29T17:03:46;9.67;;;5.03;;
20458;SDS011;10388;52.314;7.938;2022-12-29T17:06:22;13.33;;;7.77;;
20458;SDS011;10388;52.314;7.938;2022-12-29T17:08:52;13.70;;;6.43;;
20458;SDS011;10388;52.314;7.938;2022-12-29T17:11:27;7.30;;;3.30;;
20458;SDS011;10388;52.314;7.938;2022-12-29T17:14:18;14.07;;;7.83;;
20458;SDS011;10388;52.314;7.938;2022-12-29T17:16:50;4.27;;;2.53;;
20458;SDS011;10388;52.314;7.938;2022-12-29T17:19:26;5.53;;;2.97;;
20458;SDS011;10388;52.314;7.938;2022-12-29T17:22:03;4.37;;;1.77;;
20458;SDS011;10388;52.314;7.938;2022-12-29T17:24:41;4.63;;;1.97;;
20458;SDS011;10388;52.314;7.938;2022-12-29T17:27:17;4.63;;;2.50;;
20458;SDS011;10388;52.314;7.938;2022-12-29T17:30:00;4.67;;;1.90;;
20458;SDS011;10388;52.314;7.938;2022-12-29T17:32:43;2.50;;;1.63;;
20458;SDS011;10388;52.314;7.938;2022-12-29T17:35:19;3.73;;;1.77;;
20458;SDS011;10388;52.314;7.938;2022-12-29T17:37:51;5.73;;;1.73;;
20458;SDS011;10388;52.314;7.938;2022-12-29T17:40:26;2.60;;;1.80;;
20458;SDS011;10388;52.314;7.938;2022-12-29T17:42:58;2.53;;;1.60;;
20458;SDS011;10388;52.314;7.938;2022-12-29T17:45:30;4.17;;;1.67;;
20458;SDS011;10388;52.314;7.938;2022-12-29T17:48:01;2.00;;;1.53;;
20458;SDS011;10388;52.314;7.938;2022-12-29T17:50:32;4.67;;;1.50;;
20458;SDS011;10388;52.314;7.938;2022-12-29T17:53:03;4.80;;;1.10;;
20458;SDS011;10388;52.314;7.938;2022-12-29T17:55:35;2.30;;;1.13;;
20458;SDS011;10388;52.314;7.938;2022-12-29T17:58:22;2.00;;;1.33;;
20458;SDS011;10388;52.314;7.938;2022-12-29T18:00:55;3.10;;;1.20;;
20458;SDS011;10388;52.314;7.938;2022-12-29T18:03:32;3.83;;;1.57;;
20458;SDS011;10388;52.314;7.938;2022-12-29T18:06:04;4.93;;;2.80;;
20458;SDS011;10388;52.314;7.938;2022-12-29T18:08:38;8.87;;;2.40;;
20458;SDS011;10388;52.314;7.938;2022-12-29T18:11:24;2.83;;;1.80;;
20458;SDS011;10388;52.314;7.938;2022-12-29T18:13:56;3.63;;;1.63;;
20458;SDS011;10388;52.314;7.938;2022-12-29T18:16:27;5.80;;;1.93;;
20458;SDS011;10388;52.314;7.938;2022-12-29T18:18:57;2.30;;;1.53;;
20458;SDS011;10388;52.314;7.938;2022-12-29T18:21:28;4.90;;;1.90;;
20458;SDS011;10388;52.314;7.938;2022-12-29T18:23:58;3.33;;;1.60;;
20458;SDS011;10388;52.314;7.938;2022-12-29T18:26:30;3.33;;;1.60;;
20458;SDS011;10388;52.314;7.938;2022-12-29T18:29:01;4.00;;;1.63;;
20458;SDS011;10388;52.314;7.938;2022-12-29T18:31:32;1.97;;;1.13;;
20458;SDS011;10388;52.314;7.938;2022-12-29T18:34:14;5.40;;;2.90;;
20458;SDS011;10388;52.314;7.938;2022-12-29T18:36:49;3.13;;;1.60;;
20458;SDS011;10388;52.314;7.938;2022-12-29T18:39:20;2.30;;;1.20;;
20458;SDS011;10388;52.314;7.938;2022-12-29T18:41:51;4.10;;;1.53;;
20458;SDS011;10388;52.314;7.938;2022-12-29T18:44:22;2.73;;;1.20;;
20458;SDS011;10388;52.314;7.938;2022-12-29T18:46:53;2.60;;;1.20;;
20458;SDS011;10388;52.314;7.938;2022-12-29T18:49:24;1.37;;;1.03;;
20458;SDS011;10388;52.314;7.938;2022-12-29T18:51:54;3.27;;;1.70;;
20458;SDS011;10388;52.314;7.938;2022-12-29T18:54:26;3.80;;;1.27;;
20458;SDS011;10388;52.314;7.938;2022-12-29T18:57:01;4.90;;;1.20;;
20458;SDS011;10388;52.314;7.938;2022-12-29T18:59:31;2.03;;;1.10;;
20458;SDS011;10388;52.314;7.938;2022-12-29T19:02:02;1.83;;;1.20;;
20458;SDS011;10388;52.314;7.938;2022-12-29T19:04:32;4.27;;;1.10;;
20458;SDS011;10388;52.314;7.938;2022-12-29T19:07:03;5.53;;;1.30;;
20458;SDS011;10388;52.314;7.938;2022-12-29T19:09:33;2.77;;;1.33;;
20458;SDS011;10388;52.314;7.938;2022-12-29T19:12:04;2.10;;;1.13;;
20458;SDS011;10388;52.314;7.938;2022-12-29T19:14:35;3.50;;;1.43;;
20458;SDS011;10388;52.314;7.938;2022-12-29T19:17:07;2.07;;;1.20;;
20458;SDS011;10388;52.314;7.938;2022-12-29T19:19:42;5.50;;;1.70;;